KCDS/CDS METAR and TAF weather

Enter ICAO airport designator
Station Type Date Time Source
KCDS METAR 2020/10/22 02:53 UTC NOAA

KCDS 220253Z AUTO 16009KT 10SM CLR 23/14 A2992 RMK AO2 SLP111 T02280139 53008


Station Type Date Time Source
KCDS Decoded METAR 2020/10/22 02:53 UTC NOAA

CHILDRESS MUNICIPAL AIRPORT, TX, United States (KCDS) 34-26N 100-17W 594M
Oct 21, 2020 - 10:53 PM EDT / 2020.10.22 0253 UTC
Wind: from the SSE (160 degrees) at 10 MPH (9 KT):0
Visibility: 10 mile(s):0
Sky conditions: clear
Temperature: 73.0 F (22.8 C)
Dew Point: 57.0 F (13.9 C)
Relative Humidity: 57%
Pressure (altimeter): 29.92 in. Hg (1013 hPa)
Pressure tendency: 0.02 inches (0.8 hPa) higher than three hours ago
ob: KCDS 220253Z AUTO 16009KT 10SM CLR 23/14 A2992 RMK AO2 SLP111 T02280139 53008
cycle: 3

Station Type Date Time Source
KCDS TAF 2020/10/21 18:40 UTC NOAA

TAF
AMD KCDS 211738Z 2118/2218 19010G20KT P6SM SCT026
FM220500 17015KT P6SM FEW250 WS020/19040KT
FM221300 18011KT P6SM SCT250

Example: see airport list